Valentino Caprioli

Scout - Como
3 Dec 2028
Sunday
Process

Personality

Adaptability (14) Ambition (11) Controversy (20) Loyalty (3) Pressure (11) Professionalism (7) Sportsmanship (15) Temperament (11)

Profile

Coaching Style Democratic
License National B
Determination 11
Man Management 7
Motivating 5
Discipline 10
Job Satisfaction
100%
Fatigue
0%
Role Scout
Wage 26.3K p/w
Contract 14.03.2029

Performance

Behaviour Good
Training Effectiveness
34%
Player Development
25%
Injury Prevention
45%
Tactical Implementation
30%

Recent Events

Attended a recruitment meeting now
Recommended a transfer target now
Recommended a transfer target now
Attended a recruitment meeting 7d ago
Recommended a transfer target 7d ago
Recommended a transfer target 7d ago
Recommended a transfer target 7d ago
Recommended a transfer target 7d ago

Currently Monitoring

134
Player Club Status Ability Confidence Watched Last Observed Latest Vote
Josh King Newcastle United Active 154 / 162 40% 2 20.11.2028 -
Iestyn Jones Swansea City Active 109 / 115 40% 1 20.11.2028 -
Miguel Figueiredo Benfica Active 132 / 131 40% 9 17.11.2028 -
Filip Reshane Stabaek Active 91 / 102 40% 2 17.11.2028 -
Vitaly Bondarev Ural Active 112 / 106 40% 1 14.11.2028 -
Máximo Munarriz San Telmo Active 105 / 110 40% 1 14.11.2028 -
Luka Vušković Tottenham Active 146 / 155 40% 3 12.11.2028 -
Celías Ingenthron Platense Active 120 / 125 40% 2 12.11.2028 -
Martim Cunha Porto Active 125 / 118 40% 5 11.11.2028 -
Jack Shorrock Port Vale Active 119 / 117 40% 1 10.11.2028 -
Louis Page Leicester City Active 136 / 132 40% 1 10.11.2028 -
Riquelme Thompson-Jones Accrington Stanley Active 117 / 119 40% 4 09.11.2028 -
Andrey Ivlev Nizhniy Novgorod Active 102 / 106 40% 3 09.11.2028 -
Davinchi Getafe Active 131 / 123 40% 1 08.11.2028 -
Christos Mouzakitis Hull City Active 151 / 147 40% 7 07.11.2028 -
Germán Barbas Racing Santander Active 125 / 124 40% 1 07.11.2028 -
Felipe Obradovich Ferro Carril Oeste Active 102 / 113 40% 1 21.10.2028 -
Darryl Bakola Sassuolo Active 123 / 134 40% 1 21.10.2028 -
Malte Heyde Esbjerg Active 93 / 121 40% 1 18.10.2028 -
Daniel Banjaqui Benfica Active 131 / 128 40% 2 17.10.2028 -
Moses Sesay Southampton Active 121 / 134 40% 1 17.10.2028 -
Jaydan Kamason Manchester United Active 113 / 122 40% 2 15.10.2028 -
Federico Nardin Willem II Active 100 / 102 40% 1 15.10.2028 -
Chris Rigg West Ham United Active 129 / 143 40% 1 13.10.2028 -
Jofre Torrents Ajax Active 141 / 136 40% 1 13.10.2028 -
Matías Satas Grimsby Town Active 114 / 121 40% 1 11.10.2028 -
Tobías Ramírez River Plate Active 134 / 138 40% 3 09.10.2028 -
Alejandro Almaraz NK Celje Active 133 / 117 40% 1 07.10.2028 -
Giorgio Vezzosi Sassuolo Active 119 / 117 40% 1 07.10.2028 -
Valentín Loza Defensa y Justicia Active 91 / 106 40% 1 04.10.2028 -
Ignacio Ovando Rosario Central Active 114 / 119 40% 1 04.10.2028 -
Giovanni Leoni Lincoln City Active 136 / 152 40% 4 04.09.2028 -
Axel Tape Bayer Leverkusen Active 148 / 138 40% 1 04.09.2028 -
Augusto Bando Ascoli Active 99 / 122 40% 4 14.08.2028 -
Antonio Boccadamo Virtus Entella Active 98 / 115 44% 1 14.08.2028 -
Mauro Carrizo Atlético Tucumán Active 105 / 101 40% 1 07.08.2028 -
Alin Kumer Čelik Genoa Active 106 / 114 40% 1 07.08.2028 -
Olivier Leroux Mouscron Active 109 / 119 40% 3 17.07.2028 -
Cheveyo Tsawa Club Brugge Active 117 / 134 40% 1 17.07.2028 -
Nejc Viher NK Maribor Active 115 / 118 40% 3 30.05.2028 -
Alessio Insignito Spezia Active 113 / 103 40% 2 25.05.2028 -
Callum Olusesi Tottenham Active 128 / 115 40% 1 24.05.2028 -
Ayden Heaven Portsmouth Active 148 / 158 40% 2 23.05.2028 -
Noahkai Banks FC Augsburg Active 131 / 140 40% 2 22.05.2028 -
Jorthy Mokio ADO Den Haag Active 126 / 131 40% 4 20.05.2028 -
Tyler Fletcher Rotherham United Active 121 / 110 40% 1 19.05.2028 -
Bernardo Lima Porto Active 104 / 122 40% 3 17.05.2028 -
Nazareno Roselli Defensa y Justicia Active 105 / 120 40% 2 16.05.2028 -
Andrea Cogoni Cosenza Active 95 / 111 40% 1 16.05.2028 -
Trey Nyoni Rotherham United Active 135 / 143 40% 4 08.05.2028 -
Lautaro Dufur Juventud Active 102 / 105 40% 1 28.04.2028 -
Isaiah Dada-Mascoll Gillingham Active 103 / 103 40% 1 25.04.2028 -
Josh Stephenson Brentford Active 117 / 112 40% 1 25.04.2028 -
Vasilije Novičić IMT Active 106 / 111 40% 1 21.04.2028 -
Charlie Crew Leeds United Active 120 / 124 40% 1 21.04.2028 -
Jason Witsel PSV Active 131 / 135 40% 1 15.04.2028 -
Matvey Bardachev Zenit Active 104 / 110 40% 7 04.04.2028 -
Olivier Mambwa Young Boys Active 109 / 128 40% 2 29.03.2028 -
Juan Giménez Rosario Central Active 103 / 116 40% 1 27.03.2028 -
Ezra Mayers West Ham United Active 120 / 135 40% 1 27.03.2028 -
Josh Acheampong Everton Active 152 / 153 40% 6 25.03.2028 -
Thiago Silvero Vélez Active 139 / 132 40% 1 20.03.2028 -
Othniël Raterink Cagliari Active 103 / 123 40% 3 25.01.2028 -
Mao Hosoya Santos Active 134 / 135 67% 1 01.01.2028 Approve
Boubacar Fofana Como Active 115 / 115 66% 1 01.01.2028 Approve
Matěj Ryneš AS Nancy Active 122 / 123 67% 1 01.01.2028 Approve
Victor Hernandez Santa Fe Active 133 / 121 40% 3 30.12.2027 -
Kiani Inge Groningen Active 102 / 117 40% 3 28.12.2027 -
Oscar Steinke Brånby Hammarby Active 111 / 125 40% 4 27.12.2027 -
Amine Boukamir Charleroi Active 94 / 102 40% 3 25.12.2027 -
Gonçalo Oliveira Benfica Active 121 / 113 40% 2 23.12.2027 -
Tiago Freitas Benfica Active 107 / 128 40% 2 19.12.2027 -
Agustín Obregón River Plate Active 101 / 128 40% 2 18.12.2027 -
Nicolas Sport Recife Active 115 / 101 40% 2 17.12.2027 -
Juan Manuel Villalba Tigre Active 120 / 118 40% 2 06.12.2027 -
Hugo Rojas Instituto Active 118 / 123 40% 2 04.12.2027 -
Facundo Balatti Penarol Active 101 / 103 40% 1 30.11.2027 -
Tobias Moi Lillestrom Active 99 / 126 40% 2 16.11.2027 -
Niccolò Fortini Fiorentina Active 138 / 130 40% 1 15.11.2027 -
Matias Siltanen Malmo FF Active 108 / 116 40% 2 03.11.2027 -
Malick Yalcouyé Brighton Active 139 / 127 40% 2 01.11.2027 -
Halam Loboa Sevilla Active 128 / 136 40% 2 12.09.2027 -
José Cavadia Aguilas Doradas Active 93 / 103 40% 1 12.09.2027 -
Eliás Montiel Borussia Dortmund Active 142 / 148 40% 4 10.09.2027 -
Raphael Odogwu Südtirol Active 103 / 125 44% 1 28.06.2027 -
Gady Beyuku Blackburn Rovers Active 125 / 111 40% 1 04.06.2027 -
Johannes Eggestein Orlando City Active 125 / 125 68% 1 01.06.2027 Approve
Bence Dárdai VfL Wolfsburg Active 140 / 141 40% 5 28.05.2027 -
Bade Aluko Leicester City Active 109 / 128 40% 3 19.05.2027 -
Enzo Koffi Olympique de Marseille Active 107 / 111 40% 1 11.05.2027 -
Riley Owen Stevenage Active 111 / 115 40% 1 06.05.2027 -
Fabian Merién PSV Active 93 / 120 40% 2 04.05.2027 -
Kyllian Antonio RC Lens Active 118 / 124 40% 2 21.04.2027 -
Wessel Kuhn PSV Active 99 / 108 40% 1 17.04.2027 -
Riyad Idrissi Cagliari Active 131 / 117 40% 4 13.04.2027 -
David Ozoh Derby County Active 128 / 123 40% 2 11.04.2027 -
Jaygo van Ommeren Utrecht Active 111 / 106 40% 2 08.04.2027 -
Sascha Britschgi AC Milan Active 129 / 127 40% 1 08.04.2027 -
Eivind Helland AC Milan Active 127 / 142 40% 1 16.03.2027 -
Nicolò Zaniolo Udinese Active 152 / 146 40% 5 30.12.2026 -
Wesley AS Roma Active 137 / 142 40% 1 30.12.2026 -
Raoul Bellanova Atalanta Active 163 / 152 40% 2 28.12.2026 -
Hans Nicolussi Caviglia Parma Active 135 / 125 40% 1 28.12.2026 -
Unai Gómez Udinese Active 134 / 130 40% 1 27.12.2026 -
Marco Brescianini Fiorentina Active 145 / 153 40% 1 22.12.2026 -
Nicolò Cambiaghi Bologna Active 153 / 140 40% 2 19.12.2026 -
Mikael Egill Ellertsson Genoa Active 139 / 128 40% 1 16.12.2026 -
Fisayo Dele-Bashiru Lazio Active 150 / 143 40% 1 13.12.2026 -
Giovanni Giunti Bari Active 96 / 107 40% 1 09.12.2026 -
Lewis Ferguson Bologna Active 143 / 134 40% 2 05.12.2026 -
Juan Miranda Bologna Active 152 / 153 40% 1 22.11.2026 -
Tommaso Pobega Bologna Active 135 / 125 40% 1 16.11.2026 -
Martín Ojeda Orlando City Active 155 / 115 40% 1 15.11.2026 -
Billy Gilmour Napoli Active 135 / 144 40% 1 11.11.2026 -
Jens Petter Hauge Bodo/Glimt Active 119 / 158 40% 1 11.11.2026 -
Emanuele Valeri Parma Active 134 / 130 40% 1 08.11.2026 -
Andrea Colpani Monza Active 149 / 148 40% 1 05.11.2026 -
Philippe Ndinga Philadelphia Union Active 103 / 117 40% 1 05.11.2026 -
Nikita Stoinov Dinamo Bucharest Active 110 / 112 40% 1 04.11.2026 -
Corrado Riviera Renate Active 117 / 114 40% 1 04.11.2026 -
Adrián Bernabé Parma Active 134 / 146 40% 1 03.11.2026 -
Yunus Akgün Galatasaray Active 150 / 128 40% 2 01.11.2026 -
Xavi Simons Tottenham Active 145 / 167 40% 2 27.10.2026 -
Quinten Timber Crystal Palace Active 144 / 163 40% 1 25.10.2026 -
Wilson Isidor Sunderland Active 133 / 132 40% 1 21.10.2026 -
Cody Gakpo Liverpool Active 146 / 166 40% 1 21.10.2026 -
Yeremy Pino Crystal Palace Active 155 / 151 40% 1 20.10.2026 -
Matt O'Riley Brighton Active 158 / 151 40% 1 19.10.2026 -
Nuno Tavares Lazio Active 149 / 153 40% 2 16.10.2026 -
Marcus Edwards Burnley Active 126 / 127 40% 1 13.10.2026 -
Giacomo Raspadori Atalanta Active 156 / 158 40% 1 12.10.2026 -
Caleb Yirenkyi Coventry City Active 146 / 131 40% 1 08.09.2026 -
Lloyd Kelly Juventus Active 145 / 136 40% 1 07.09.2026 -
Stefano Scognamillo Benevento Active 125 / 131 44% 1 17.08.2026 -